Time;durP1;ratioP1;P1;durP2;ratioP2;P2;SDS_P1;SDS_P2;PMS_P1;PMS_P2;Temp;Humidity;BMP_temperature;BMP_pressure;BME280_temperature;BME280_humidity;BME280_pressure;Samples;Min_cycle;Max_cycle;Signal;HPM_P1;HPM_P2
2022/05/09 00:00:19;;;;;;;;;;;;;;;24.08;37.81;99710.03;4469130;32;33988;-83
2022/05/09 00:02:48;;;;;;;;;;;;;;;24.04;37.83;99715.44;4468802;32;34381;-84
2022/05/09 00:05:16;;;;;;;;;;;;;;;24.22;37.42;99713.94;4468842;32;34751;-84
2022/05/09 00:07:44;;;;;;;;;;;;;;;24.02;37.74;99709.34;4483388;32;34408;-85
2022/05/09 00:10:13;;;;;;;;;;;;;;;24.09;37.58;99707.31;4468924;32;35292;-84
2022/05/09 00:12:40;;;;;;;;;;;;;;;23.89;37.97;99704.50;4468613;32;34133;-83
2022/05/09 00:15:08;;;;;;;;;;;;;;;23.79;38.28;99706.59;4482728;32;34540;-84
2022/05/09 00:17:35;;;;;;;;;;;;;;;23.57;39.05;99711.69;4481778;32;33610;-84
2022/05/09 00:20:02;;;;;;;;;;;;;;;;;;4483083;32;35152;-84
2022/05/09 00:22:30;;;;;;;;;;;;;;;23.67;38.99;99702.53;4483178;32;35491;-84
2022/05/09 00:25:01;;;;;;;;;;;;;;;23.87;38.50;99701.91;4482521;32;34072;-84
2022/05/09 00:27:28;;;;;;;;;;;;;;;23.94;38.38;99707.84;4482981;32;33640;-83
2022/05/09 00:29:55;;;;;;;;;;;;;;;23.98;37.78;99705.06;4479359;32;34877;-83
2022/05/09 00:32:24;;;;;;;;;;;;;;;24.10;37.45;99709.06;4482742;32;34487;-83
2022/05/09 00:34:51;;;;;;;;;;;;;;;23.83;38.03;99702.94;4482695;32;34346;-83
2022/05/09 00:37:20;;;;;;;;;;;;;;;23.92;37.87;99699.97;4479909;32;33405;-83
2022/05/09 00:39:47;;;;;;;;;;;;;;;24.13;37.32;99703.69;4482827;32;34371;-84
2022/05/09 00:42:15;;;;;;;;;;;;;;;23.92;37.57;99701.75;4482496;32;34406;-83
2022/05/09 00:44:42;;;;;;;;;;;;;;;24.00;37.48;99705.84;4482793;32;34502;-83
2022/05/09 00:47:09;;;;;;;;;;;;;;;23.85;37.70;99709.03;4482852;32;33599;-83
2022/05/09 00:49:45;;;;;;;;;;;;;;;23.92;37.66;99707.03;4482969;32;34335;-82
2022/05/09 00:52:14;;;;;;;;;;;;;;;23.98;37.50;99709.47;4468487;32;34141;-83
2022/05/09 00:54:44;;;;;;;;;;;;;;;23.98;37.56;99706.81;4468248;32;34385;-82
2022/05/09 00:57:14;;;;;;;;;;;;;;;23.92;37.54;99709.69;4468663;32;34254;-83
2022/05/09 00:59:43;;;;;;;;;;;;;;;23.79;37.83;99710.09;4482339;32;33801;-83
2022/05/09 01:02:14;;;;;;;;;;;;;;;23.79;37.78;99722.47;4468078;32;35177;-84
2022/05/09 01:04:46;;;;;;;;;;;;;;;23.51;38.46;99717.16;4468775;32;34455;-84
2022/05/09 01:07:14;;;;;;;;;;;;;;;23.54;38.47;99711.75;4468195;32;33620;-82
2022/05/09 01:09:41;;;;;;;;;;;;;;;23.26;39.17;99715.28;4468255;32;35037;-84
2022/05/09 01:12:08;;;;;;;;;;;;;;;23.49;38.73;99716.34;4481637;32;34409;-84
2022/05/09 01:14:39;;;;;;;;;;;;;;;23.34;39.10;99714.19;4482426;32;35307;-84
2022/05/09 01:17:06;;;;;;;;;;;;;;;22.95;40.10;99722.38;4482610;32;34465;-84
2022/05/09 01:19:38;;;;;;;;;;;;;;;22.99;40.23;99718.72;4482556;32;35059;-84
2022/05/09 01:22:18;;;;;;;;;;;;;;;22.87;40.19;99717.25;4480756;32;34157;-84
2022/05/09 01:24:45;;;;;;;;;;;;;;;23.16;39.73;99723.53;4482005;32;34370;-83
2022/05/09 01:27:12;;;;;;;;;;;;;;;23.10;39.89;99724.56;4467884;32;33340;-84
2022/05/09 01:29:48;;;;;;;;;;;;;;;23.14;39.84;99726.19;4468065;32;33951;-84
2022/05/09 01:32:17;;;;;;;;;;;;;;;23.01;39.99;99722.19;4467019;32;34194;-83
2022/05/09 01:34:46;;;;;;;;;;;;;;;23.20;39.66;99726.03;4481738;32;35248;-83
2022/05/09 01:37:15;;;;;;;;;;;;;;;23.39;39.40;99723.69;4455586;32;33750;-84
2022/05/09 01:39:43;;;;;;;;;;;;;;;23.08;40.05;99729.03;4482258;32;34140;-83
2022/05/09 01:42:10;;;;;;;;;;;;;;;23.17;39.90;99725.25;4481042;32;35058;-84
2022/05/09 01:44:37;;;;;;;;;;;;;;;23.57;39.23;99738.12;4482028;32;34356;-84
2022/05/09 01:49:51;;;;;;;;;;;;;;;23.69;38.76;99732.47;4484191;32;34480;-84
2022/05/09 01:52:19;;;;;;;;;;;;;;;23.74;38.62;99724.38;4483525;32;35475;-84
2022/05/09 01:54:46;;;;;;;;;;;;;;;23.41;39.33;99723.62;4484194;32;34131;-84
2022/05/09 01:57:14;;;;;;;;;;;;;;;23.74;38.68;99727.91;4483672;32;33648;-84
2022/05/09 01:59:42;;;;;;;;;;;;;;;23.56;39.16;99723.16;4470095;32;33636;-84
2022/05/09 02:02:10;;;;;;;;;;;;;;;23.46;39.31;99721.72;4481727;32;35330;-83
2022/05/09 02:04:40;;;;;;;;;;;;;;;23.55;38.90;99721.44;4483410;32;34722;-84
2022/05/09 02:07:09;;;;;;;;;;;;;;;23.53;38.97;99725.91;4484020;32;33857;-84
2022/05/09 02:09:44;;;;;;;;;;;;;;;23.19;39.75;99726.09;4484238;32;34317;-84
2022/05/09 02:12:12;;;;;;;;;;;;;;;23.46;39.16;99721.72;4483033;32;34284;-84
2022/05/09 02:14:40;;;;;;;;;;;;;;;23.33;39.54;99725.66;4483742;32;35764;-84
2022/05/09 02:17:08;;;;;;;;;;;;;;;23.06;40.06;99722.91;4482218;32;34582;-84
2022/05/09 02:19:35;;;;;;;;;;;;;;;22.97;40.13;99728.47;4483800;32;33803;-83
2022/05/09 02:22:03;;;;;;;;;;;;;;;22.98;40.38;99735.50;4483835;32;33898;-84
2022/05/09 02:24:34;;;;;;;;;;;;;;;23.22;39.87;99724.22;4483636;32;35155;-85
2022/05/09 02:27:03;;;;;;;;;;;;;;;23.22;39.69;99734.81;4483595;32;33419;-84
2022/05/09 02:29:31;;;;;;;;;;;;;;;23.15;39.58;99727.94;4483836;32;33936;-83
2022/05/09 02:31:59;;;;;;;;;;;;;;;23.23;39.38;99733.87;4482102;32;34436;-83
2022/05/09 02:34:26;;;;;;;;;;;;;;;23.37;38.91;99728.16;4483715;32;34281;-84
2022/05/09 02:36:54;;;;;;;;;;;;;;;23.37;38.89;99727.28;4484180;32;33774;-84
2022/05/09 02:39:21;;;;;;;;;;;;;;;23.20;38.99;99736.59;4468714;32;34912;-84
2022/05/09 02:41:49;;;;;;;;;;;;;;;23.39;38.62;99733.41;4483407;32;34156;-84
2022/05/09 02:44:16;;;;;;;;;;;;;;;23.48;38.45;99735.75;4483775;32;34165;-84
2022/05/09 02:46:43;;;;;;;;;;;;;;;23.47;38.37;99731.38;4483850;32;32900;-84
2022/05/09 02:49:11;;;;;;;;;;;;;;;23.50;38.17;99734.81;4483784;32;32853;-81
2022/05/09 02:51:38;;;;;;;;;;;;;;;23.45;38.11;99734.09;4469059;32;33951;-84
2022/05/09 02:54:05;;;;;;;;;;;;;;;23.40;38.46;99732.50;4468978;32;34596;-84
2022/05/09 02:56:33;;;;;;;;;;;;;;;23.55;38.15;99732.88;4483756;32;33288;-84
2022/05/09 02:59:00;;;;;;;;;;;;;;;23.62;37.96;99738.00;4479283;32;34215;-84
2022/05/09 03:01:27;;;;;;;;;;;;;;;23.66;37.76;99740.50;4482837;32;34416;-84
2022/05/09 03:06:43;;;;;;;;;;;;;;;23.74;37.53;99741.13;4483071;32;33893;-84
2022/05/09 03:09:10;;;;;;;;;;;;;;;23.62;37.63;99744.16;4483618;32;34256;-84
2022/05/09 03:11:39;;;;;;;;;;;;;;;23.71;37.56;99743.00;4482817;32;34104;-85
2022/05/09 03:14:06;;;;;;;;;;;;;;;23.56;37.92;99739.03;4483231;32;34452;-85
2022/05/09 03:16:33;;;;;;;;;;;;;;;23.48;38.06;99741.06;4483209;32;34253;-84
2022/05/09 03:19:01;;;;;;;;;;;;;;;23.33;38.19;99747.69;4483222;32;34234;-84
2022/05/09 03:21:29;;;;;;;;;;;;;;;23.35;38.49;99740.56;4483410;32;34278;-84
2022/05/09 03:23:56;;;;;;;;;;;;;;;23.45;38.46;99751.72;4483059;32;35388;-83
2022/05/09 03:26:25;;;;;;;;;;;;;;;23.71;38.00;99746.53;4482319;32;33768;-84
2022/05/09 03:28:52;;;;;;;;;;;;;;;23.84;37.74;99752.31;4483290;32;33452;-84
2022/05/09 03:31:20;;;;;;;;;;;;;;;23.98;37.51;99757.13;4483461;32;34060;-82
2022/05/09 03:33:47;;;;;;;;;;;;;;;23.79;37.78;99747.16;4483560;32;33970;-82
2022/05/09 03:36:14;;;;;;;;;;;;;;;23.78;37.67;99745.41;4482705;32;34039;-83
2022/05/09 03:38:42;;;;;;;;;;;;;;;23.87;37.33;99760.16;4483298;32;34493;-82
2022/05/09 03:41:09;;;;;;;;;;;;;;;24.09;37.03;99757.66;4479350;32;34337;-82
2022/05/09 03:43:36;;;;;;;;;;;;;;;24.07;36.88;99756.84;4482921;32;35266;-84
2022/05/09 03:46:04;;;;;;;;;;;;;;;24.08;37.06;99752.41;4477769;32;33419;-84
2022/05/09 03:48:31;;;;;;;;;;;;;;;24.24;36.98;99762.47;4482106;32;35069;-84
2022/05/09 03:51:01;;;;;;;;;;;;;;;24.43;36.38;99756.56;4482914;32;34181;-82
2022/05/09 03:53:29;;;;;;;;;;;;;;;24.48;36.42;99762.56;4479852;32;34920;-84
2022/05/09 03:55:56;;;;;;;;;;;;;;;24.49;36.37;99753.69;4475475;32;34301;-83
2022/05/09 03:58:23;;;;;;;;;;;;;;;24.62;36.11;99757.63;4479284;32;34933;-82
2022/05/09 04:00:51;;;;;;;;;;;;;;;24.68;36.26;99761.88;4483030;32;35194;-84
2022/05/09 04:03:19;;;;;;;;;;;;;;;24.79;36.33;99766.78;4468274;32;34525;-85
2022/05/09 04:05:48;;;;;;;;;;;;;;;24.98;36.09;99751.94;4482820;32;33938;-84
2022/05/09 04:08:16;;;;;;;;;;;;;;;25.06;36.05;99760.47;4468377;32;34175;-84
2022/05/09 04:10:44;;;;;;;;;;;;;;;24.75;36.60;99771.34;4478243;32;35331;-84
2022/05/09 04:13:11;;;;;;;;;;;;;;;25.19;35.94;99768.88;4459397;32;34468;-82
2022/05/09 04:18:26;;;;;;;;;;;;;;;25.13;36.44;99769.97;4470456;32;33858;-82
2022/05/09 04:20:53;;;;;;;;;;;;;;;24.86;37.37;99768.31;4482107;32;34379;-84
2022/05/09 04:23:20;;;;;;;;;;;;;;;25.39;36.75;99771.66;4444092;32;778633;-84
2022/05/09 04:25:48;;;;;;;;;;;;;;;25.62;36.57;99770.75;4482904;32;34378;-83
2022/05/09 04:28:16;;;;;;;;;;;;;;;25.73;36.57;99773.84;4469121;32;34353;-84
2022/05/09 04:30:44;;;;;;;;;;;;;;;25.77;36.24;99776.38;4482552;32;35185;-83
2022/05/09 04:33:13;;;;;;;;;;;;;;;25.82;36.04;99779.75;4470193;31;34769;-83
2022/05/09 04:35:41;;;;;;;;;;;;;;;25.78;35.75;99781.66;4497247;31;33585;-84
2022/05/09 04:38:13;;;;;;;;;;;;;;;25.81;35.43;99780.69;4466980;32;34018;-84
2022/05/09 04:40:41;;;;;;;;;;;;;;;25.93;35.74;99786.34;4481948;32;34204;-83
2022/05/09 04:43:08;;;;;;;;;;;;;;;26.05;35.99;99789.44;4480003;32;34473;-82
2022/05/09 04:45:36;;;;;;;;;;;;;;;26.11;36.01;99790.06;4467330;32;34362;-83
2022/05/09 04:48:05;;;;;;;;;;;;;;;26.03;36.31;99791.31;4467416;32;33416;-83
2022/05/09 04:50:34;;;;;;;;;;;;;;;25.97;36.66;99792.41;4467149;32;35131;-82
2022/05/09 04:53:02;;;;;;;;;;;;;;;26.06;36.74;99793.81;4466597;32;35216;-82
2022/05/09 04:55:30;;;;;;;;;;;;;;;26.09;37.18;99794.56;4483026;32;34514;-82
2022/05/09 04:58:03;;;;;;;;;;;;;;;26.32;36.97;99798.91;4483026;32;35010;-83
2022/05/09 05:00:31;;;;;;;;;;;;;;;26.08;36.76;99806.12;4482779;32;34275;-83
2022/05/09 05:02:58;;;;;;;;;;;;;;;26.07;37.11;99803.53;4482481;32;34383;-83
2022/05/09 05:05:26;;;;;;;;;;;;;;;26.07;37.01;99799.09;4466905;32;33733;-82
2022/05/09 05:07:53;;;;;;;;;;;;;;;25.82;37.28;99796.53;4467511;32;34380;-84
2022/05/09 05:10:26;;;;;;;;;;;;;;;25.86;37.21;99800.81;4453484;32;35304;-83
2022/05/09 05:12:56;;;;;;;;;;;;;;;25.86;37.00;99799.94;4479360;32;34167;-84
2022/05/09 05:15:24;;;;;;;;;;;;;;;25.78;37.30;99802.00;4468632;32;33810;-83
2022/05/09 05:17:51;;;;;;;;;;;;;;;25.46;38.23;99805.00;4482058;32;33692;-83
2022/05/09 05:20:19;;;;;;;;;;;;;;;25.72;37.57;99801.34;4482414;32;34337;-83
2022/05/09 05:22:49;;;;;;;;;;;;;;;25.72;37.73;99809.31;4476248;32;35223;-83
2022/05/09 05:25:21;;;;;;;;;;;;;;;25.97;37.42;99797.72;4455274;32;33416;-84
2022/05/09 05:27:49;;;;;;;;;;;;;;;25.78;37.78;99802.91;4468582;32;35034;-84
2022/05/09 05:30:16;;;;;;;;;;;;;;;26.00;37.53;99807.38;4470711;32;35125;-84
2022/05/09 05:32:44;;;;;;;;;;;;;;;26.00;37.34;99804.72;4470257;32;35176;-84
2022/05/09 05:35:13;;;;;;;;;;;;;;;25.94;37.90;99819.09;4482469;32;33581;-83
2022/05/09 05:37:40;;;;;;;;;;;;;;;25.52;39.04;99817.16;4469761;32;34709;-84
2022/05/09 05:40:10;;;;;;;;;;;;;;;25.58;38.64;99829.34;4490994;31;34977;-84
2022/05/09 05:42:42;;;;;;;;;;;;;;;25.84;38.13;99821.28;4488776;31;34369;-83
2022/05/09 05:45:11;;;;;;;;;;;;;;;26.06;37.87;99821.25;4470045;32;33277;-84
2022/05/09 05:47:38;;;;;;;;;;;;;;;25.96;38.15;99826.09;4469128;32;33876;-83
2022/05/09 05:50:07;;;;;;;;;;;;;;;26.16;37.85;99835.91;4469366;32;34210;-83
2022/05/09 05:52:35;;;;;;;;;;;;;;;25.88;38.62;99836.16;4470233;32;34323;-84
2022/05/09 05:55:02;;;;;;;;;;;;;;;25.83;38.90;99839.91;4470134;32;34340;-84
2022/05/09 05:57:31;;;;;;;;;;;;;;;25.85;38.86;99843.38;4474726;32;34889;-84
2022/05/09 06:00:01;;;;;;;;;;;;;;;25.98;38.74;99841.09;4466995;32;34867;-84
2022/05/09 06:02:29;;;;;;;;;;;;;;;25.76;39.55;99851.66;4467106;32;33992;-84
2022/05/09 06:04:56;;;;;;;;;;;;;;;25.39;39.34;99840.66;4468623;32;33620;-84
2022/05/09 06:07:24;;;;;;;;;;;;;;;25.49;39.35;99841.16;4479556;32;34304;-84
2022/05/09 06:09:52;;;;;;;;;;;;;;;25.73;38.44;99840.25;4469461;32;35239;-84
2022/05/09 06:12:21;;;;;;;;;;;;;;;25.63;39.52;99849.47;4483252;32;34914;-84
2022/05/09 06:17:36;;;;;;;;;;;;;;;25.19;39.74;99859.97;4480619;32;33604;-83
2022/05/09 06:20:04;;;;;;;;;;;;;;;25.51;39.08;99868.53;4470071;32;34383;-83
2022/05/09 06:22:36;;;;;;;;;;;;;;;25.79;38.83;99857.75;4469068;32;34316;-83
2022/05/09 06:25:04;;;;;;;;;;;;;;;25.50;39.06;99861.50;4470227;32;33949;-83
2022/05/09 06:27:32;;;;;;;;;;;;;;;25.59;37.93;99855.84;4472428;32;35020;-83
2022/05/09 06:30:00;;;;;;;;;;;;;;;25.45;38.85;99859.00;4476365;32;34320;-83
2022/05/09 06:32:28;;;;;;;;;;;;;;;25.75;37.61;99860.56;4473383;32;34458;-83
2022/05/09 06:34:55;;;;;;;;;;;;;;;25.31;39.10;99866.63;4467553;32;33494;-82
2022/05/09 06:37:24;;;;;;;;;;;;;;;25.70;38.66;99864.25;4468327;32;34666;-83
2022/05/09 06:39:51;;;;;;;;;;;;;;;26.16;38.33;99862.47;4466594;32;34199;-83
2022/05/09 06:42:20;;;;;;;;;;;;;;;26.11;39.05;99858.28;4479802;32;34213;-83
2022/05/09 06:44:47;;;;;;;;;;;;;;;26.67;38.22;99866.63;4484098;32;33596;-83
2022/05/09 06:47:15;;;;;;;;;;;;;;;26.26;38.44;99867.44;4483804;32;34149;-83
2022/05/09 06:49:42;;;;;;;;;;;;;;;26.52;38.00;99869.03;4483998;32;34321;-83
2022/05/09 06:52:09;;;;;;;;;;;;;;;25.95;39.80;99868.66;4483518;32;34271;-83
2022/05/09 06:54:37;;;;;;;;;;;;;;;25.32;39.85;99878.09;4483663;32;33361;-83
2022/05/09 06:57:05;;;;;;;;;;;;;;;25.45;38.37;99874.06;4469765;32;34300;-83
2022/05/09 06:59:32;;;;;;;;;;;;;;;26.12;37.42;99868.84;4483679;32;34261;-83
2022/05/09 07:02:00;;;;;;;;;;;;;;;26.48;37.63;99875.41;4483643;32;34096;-83
2022/05/09 07:04:27;;;;;;;;;;;;;;;26.50;38.56;99882.41;4483849;32;33412;-83
2022/05/09 07:06:56;;;;;;;;;;;;;;;26.34;36.78;99879.50;4483500;32;35149;-83
2022/05/09 07:09:23;;;;;;;;;;;;;;;26.12;38.86;99881.28;4484237;32;34483;-83
2022/05/09 07:11:51;;;;;;;;;;;;;;;25.95;37.29;99884.63;4484216;32;34285;-83
2022/05/09 07:14:18;;;;;;;;;;;;;;;25.62;38.49;99892.03;4469465;32;31707;-83
2022/05/09 07:16:46;;;;;;;;;;;;;;;25.82;37.85;99889.50;4483555;32;33995;-83
2022/05/09 07:19:14;;;;;;;;;;;;;;;24.54;40.53;99897.53;4483644;32;34380;-83
2022/05/09 07:21:41;;;;;;;;;;;;;;;24.99;40.10;99899.56;4483707;32;34510;-83
2022/05/09 07:24:09;;;;;;;;;;;;;;;25.40;39.11;99902.56;4481918;32;33705;-83
2022/05/09 07:26:36;;;;;;;;;;;;;;;25.50;38.52;99898.66;4469402;32;34086;-82
2022/05/09 07:29:05;;;;;;;;;;;;;;;25.22;39.42;99898.78;4467764;32;34287;-81
2022/05/09 07:31:33;;;;;;;;;;;;;;;25.01;38.78;99900.38;4467323;32;35380;-83
2022/05/09 07:34:01;;;;;;;;;;;;;;;25.05;37.74;99895.84;4473684;32;33746;-83
2022/05/09 07:36:28;;;;;;;;;;;;;;;25.13;38.79;99896.47;4467906;32;34669;-83
2022/05/09 07:38:55;;;;;;;;;;;;;;;25.03;39.21;99900.31;4467979;32;35127;-83
2022/05/09 07:41:23;;;;;;;;;;;;;;;24.94;39.37;99901.50;4478878;32;35283;-83
2022/05/09 07:43:50;;;;;;;;;;;;;;;24.58;39.62;99896.50;4483439;32;33548;-83
2022/05/09 07:46:19;;;;;;;;;;;;;;;24.85;39.44;99896.50;4483151;32;34415;-83
2022/05/09 07:49:07;;;;;;;;;;;;;;;25.04;38.55;99892.34;4483515;32;34526;-83
2022/05/09 07:51:37;;;;;;;;;;;;;;;24.69;39.99;99901.47;4471116;32;34489;-83
2022/05/09 07:54:04;;;;;;;;;;;;;;;24.83;36.82;99901.00;4467687;32;33999;-83
2022/05/09 07:56:38;;;;;;;;;;;;;;;24.84;38.23;99894.78;4468084;32;33766;-83
2022/05/09 07:59:05;;;;;;;;;;;;;;;25.21;37.99;99905.88;4468945;32;34795;-83
2022/05/09 08:01:32;;;;;;;;;;;;;;;25.08;37.74;99901.91;4467393;32;34402;-81
2022/05/09 08:04:04;;;;;;;;;;;;;;;25.53;36.56;99903.84;4467760;32;33315;-83
2022/05/09 08:06:31;;;;;;;;;;;;;;;25.76;36.09;99900.34;4468027;32;35146;-83
2022/05/09 08:09:00;;;;;;;;;;;;;;;25.76;34.16;99907.44;4467341;32;34542;-83
2022/05/09 08:11:28;;;;;;;;;;;;;;;25.91;35.61;99912.19;4471464;32;34783;-82
2022/05/09 08:13:55;;;;;;;;;;;;;;;25.90;35.68;99908.66;4475748;32;33484;-82
2022/05/09 08:16:26;;;;;;;;;;;;;;;25.59;36.89;99908.94;4469099;32;34878;-82
2022/05/09 08:18:54;;;;;;;;;;;;;;;25.49;36.27;99907.53;4469394;32;34453;-83
2022/05/09 08:21:21;;;;;;;;;;;;;;;25.35;36.73;99908.06;4467769;32;35255;-83
2022/05/09 08:23:51;;;;;;;;;;;;;;;25.63;37.99;99909.69;4467558;32;33777;-83
2022/05/09 08:26:21;;;;;;;;;;;;;;;26.21;35.58;99904.81;4467585;32;34724;-83
2022/05/09 08:28:49;;;;;;;;;;;;;;;24.78;38.00;99902.97;4467905;32;35335;-84
2022/05/09 08:31:21;;;;;;;;;;;;;;;25.98;34.87;99903.06;4468143;32;35482;-82
2022/05/09 08:33:49;;;;;;;;;;;;;;;26.53;33.27;99898.25;4467571;32;34438;-82
2022/05/09 08:36:45;;;;;;;;;;;;;;;26.06;35.23;99894.78;4467278;32;34370;-82
2022/05/09 08:39:05;;;;;;;;;;;;;;;26.21;35.31;99899.50;4466400;32;35389;-82
2022/05/09 08:41:47;;;;;;;;;;;;;;;26.39;35.16;99896.09;4466016;32;34317;-83
2022/05/09 08:44:27;;;;;;;;;;;;;;;26.59;33.62;99897.97;4467891;32;33291;-82
2022/05/09 08:47:03;;;;;;;;;;;;;;;26.49;34.38;99899.31;4467250;32;33889;-82
2022/05/09 08:49:49;;;;;;;;;;;;;;;25.63;34.83;99897.28;4466264;32;34398;-82
2022/05/09 08:52:18;;;;;;;;;;;;;;;26.29;33.49;99892.13;4469245;32;35391;-83
2022/05/09 08:54:46;;;;;;;;;;;;;;;26.90;33.52;99896.72;4468015;32;33341;-83
2022/05/09 08:57:17;;;;;;;;;;;;;;;26.24;33.30;99901.19;4482252;32;34913;-81
2022/05/09 08:59:47;;;;;;;;;;;;;;;26.25;32.63;99903.75;4468800;32;34568;-83
2022/05/09 09:02:16;;;;;;;;;;;;;;;25.55;34.11;99896.69;4483038;32;34334;-83
2022/05/09 09:04:44;;;;;;;;;;;;;;;26.77;32.25;99901.66;4468609;32;33080;-82
2022/05/09 09:07:28;;;;;;;;;;;;;;;26.68;32.94;99905.59;4466068;32;34444;-82
2022/05/09 09:10:02;;;;;;;;;;;;;;;26.05;32.44;99896.59;4467058;32;35393;-82
2022/05/09 09:12:34;;;;;;;;;;;;;;;26.19;33.47;99907.53;4467307;32;34574;-82
2022/05/09 09:15:07;;;;;;;;;;;;;;;25.91;32.61;99904.22;4466006;32;33046;-83
2022/05/09 09:17:59;;;;;;;;;;;;;;;26.49;32.48;99904.63;4465830;32;33748;-82
2022/05/09 09:20:36;;;;;;;;;;;;;;;26.81;33.11;99910.37;4465518;32;34421;-83
2022/05/09 09:23:15;;;;;;;;;;;;;;;27.13;32.24;99907.25;4467220;32;34064;-82
2022/05/09 09:25:43;;;;;;;;;;;;;;;26.36;32.86;99906.00;4467164;32;34420;-83
2022/05/09 09:28:10;;;;;;;;;;;;;;;26.80;32.88;99916.66;4475563;32;35033;-81
2022/05/09 09:30:37;;;;;;;;;;;;;;;26.88;30.85;99911.88;4475411;32;34548;-81
2022/05/09 09:33:09;;;;;;;;;;;;;;;26.34;31.35;99906.06;4465328;32;34461;-82
2022/05/09 09:35:45;;;;;;;;;;;;;;;26.09;31.89;99911.47;4477389;32;33149;-82
2022/05/09 09:38:14;;;;;;;;;;;;;;;26.86;31.75;99906.62;4482443;32;34806;-84
2022/05/09 09:40:42;;;;;;;;;;;;;;;26.16;31.35;99907.66;4467898;32;34859;-83
2022/05/09 09:43:09;;;;;;;;;;;;;;;26.30;33.35;99907.13;4467929;32;34556;-84
2022/05/09 09:45:44;;;;;;;;;;;;;;;27.28;30.94;99900.41;4482341;32;33232;-84
2022/05/09 09:48:11;;;;;;;;;;;;;;;26.30;32.28;99900.94;4482167;32;34121;-83
2022/05/09 09:50:52;;;;;;;;;;;;;;;26.86;33.19;99911.94;4482093;32;34267;-83
2022/05/09 09:53:37;;;;;;;;;;;;;;;25.77;32.84;99912.69;4482187;32;35359;-82
2022/05/09 09:56:05;;;;;;;;;;;;;;;27.32;30.82;99901.13;4467891;32;33773;-82
2022/05/09 09:58:32;;;;;;;;;;;;;;;28.26;30.08;99893.22;4481986;32;33937;-82
2022/05/09 10:01:01;;;;;;;;;;;;;;;27.94;30.17;99889.41;4482078;32;34882;-81
2022/05/09 10:03:29;;;;;;;;;;;;;;;27.97;33.08;99891.94;4482101;32;33941;-83
2022/05/09 10:05:57;;;;;;;;;;;;;;;28.65;30.73;99896.69;4481992;32;33302;-83
2022/05/09 10:08:30;;;;;;;;;;;;;;;28.50;28.14;99885.84;4481855;32;34215;-82
2022/05/09 10:11:01;;;;;;;;;;;;;;;27.28;28.49;99888.88;4456774;32;33563;-82
2022/05/09 10:13:42;;;;;;;;;;;;;;;27.75;28.46;99885.88;4484320;32;34061;-83
2022/05/09 10:16:12;;;;;;;;;;;;;;;27.88;27.86;99876.38;4484137;32;33808;-83
2022/05/09 10:18:42;;;;;;;;;;;;;;;28.14;27.13;99867.12;4484120;32;34126;-84
2022/05/09 10:27:17;;;;;;;;;;;;;;;27.80;28.00;99860.75;4471813;32;34387;-83
2022/05/09 10:29:45;;;;;;;;;;;;;;;28.20;27.94;99848.19;4469720;32;34107;-83
2022/05/09 10:32:12;;;;;;;;;;;;;;;28.31;28.60;99858.31;4459396;32;35182;-84
2022/05/09 10:34:55;;;;;;;;;;;;;;;28.26;28.25;99855.00;4468411;32;34941;-83
2022/05/09 10:37:42;;;;;;;;;;;;;;;28.40;28.31;99846.34;4454434;32;33382;-84
2022/05/09 10:40:11;;;;;;;;;;;;;;;27.63;29.14;99853.50;4468710;32;34355;-83
2022/05/09 10:42:41;;;;;;;;;;;;;;;28.55;27.09;99851.78;4454064;32;35525;-83
2022/05/09 10:45:27;;;;;;;;;;;;;;;29.12;25.90;99848.87;4456222;32;35186;-83
2022/05/09 10:47:56;;;;;;;;;;;;;;;28.46;27.13;99841.59;4469561;32;33656;-84
2022/05/09 10:50:25;;;;;;;;;;;;;;;28.40;27.54;99833.03;4469837;32;34183;-83
2022/05/09 10:53:11;;;;;;;;;;;;;;;28.95;27.78;99838.22;4469520;32;35238;-83
2022/05/09 10:55:43;;;;;;;;;;;;;;;28.80;28.62;99837.22;4477765;32;35695;-83
2022/05/09 10:58:12;;;;;;;;;;;;;;;28.65;29.44;99830.84;4454107;32;33489;-83
2022/05/09 11:00:45;;;;;;;;;;;;;;;30.04;27.79;99825.16;4453904;32;33901;-83
2022/05/09 11:03:24;;;;;;;;;;;;;;;29.32;26.51;99821.09;4454293;32;35392;-82
2022/05/09 11:05:55;;;;;;;;;;;;;;;29.15;26.61;99818.50;4482277;32;35227;-83
2022/05/09 11:08:30;;;;;;;;;;;;;;;28.85;27.12;99819.13;4483805;32;33671;-83
2022/05/09 11:11:00;;;;;;;;;;;;;;;28.91;27.30;99817.97;4483665;32;33880;-83
2022/05/09 11:13:30;;;;;;;;;;;;;;;28.31;27.22;99815.66;4467114;32;34992;-83
2022/05/09 11:16:18;;;;;;;;;;;;;;;28.14;28.63;99820.00;4454167;32;34135;-84
2022/05/09 11:19:04;;;;;;;;;;;;;;;26.78;29.60;99822.72;4456817;32;33500;-84
2022/05/09 11:21:35;;;;;;;;;;;;;;;27.29;29.98;99808.94;4482957;32;34502;-84
2022/05/09 11:24:09;;;;;;;;;;;;;;;27.83;27.54;99803.78;4470300;32;34454;-83
2022/05/09 11:26:44;;;;;;;;;;;;;;;28.36;28.74;99821.59;4455948;32;33742;-84
2022/05/09 11:29:18;;;;;;;;;;;;;;;28.54;27.20;99807.38;4455197;32;34240;-82
2022/05/09 11:31:46;;;;;;;;;;;;;;;28.64;27.49;99807.78;4453965;32;34086;-84
2022/05/09 11:34:21;;;;;;;;;;;;;;;29.33;25.27;99793.47;4467701;32;34314;-83
2022/05/09 11:36:49;;;;;;;;;;;;;;;28.86;27.95;99791.50;4462915;32;34559;-85
2022/05/09 11:39:35;;;;;;;;;;;;;;;28.55;28.10;99793.09;4467931;32;34516;-84
2022/05/09 11:45:06;;;;;;;;;;;;;;;29.35;25.84;99788.91;4480060;32;35354;-84
2022/05/09 11:47:41;;;;;;;;;;;;;;;30.05;24.24;99782.28;4453858;32;34297;-84
2022/05/09 11:50:12;;;;;;;;;;;;;;;29.79;22.75;99788.28;4453418;32;34110;-85
2022/05/09 11:52:40;;;;;;;;;;;;;;;30.37;22.30;99787.59;4467820;32;33851;-85
2022/05/09 11:55:10;;;;;;;;;;;;;;;29.98;24.94;99804.13;4454801;32;34392;-84
2022/05/09 11:57:38;;;;;;;;;;;;;;;28.82;27.52;99796.13;4481827;32;35015;-89
2022/05/09 12:00:32;;;;;;;;;;;;;;;27.47;26.81;99812.56;4458966;32;33637;-82
2022/05/09 12:03:05;;;;;;;;;;;;;;;27.64;25.50;99799.28;4473857;32;34191;-83
2022/05/09 12:05:33;;;;;;;;;;;;;;;27.54;25.08;99805.13;4468069;32;34408;-82
2022/05/09 12:08:14;;;;;;;;;;;;;;;27.28;25.33;99796.56;4476227;32;34273;-82
2022/05/09 12:10:42;;;;;;;;;;;;;;;27.94;25.01;99798.78;4466494;32;33462;-82
2022/05/09 12:13:10;;;;;;;;;;;;;;;28.66;24.35;99797.03;4479330;32;35283;-83
2022/05/09 12:15:58;;;;;;;;;;;;;;;28.04;24.82;99791.22;4477282;32;34126;-83
2022/05/09 12:18:33;;;;;;;;;;;;;;;26.75;27.28;99796.28;4472787;32;34056;-83
2022/05/09 12:21:37;;;;;;;;;;;;;;;26.82;26.85;99792.38;4466508;32;33988;-82
2022/05/09 12:24:09;;;;;;;;;;;;;;;27.19;27.68;99788.97;4457099;32;35112;-82
2022/05/09 12:26:38;;;;;;;;;;;;;;;27.65;26.06;99790.38;4469397;32;34225;-83
2022/05/09 12:29:25;;;;;;;;;;;;;;;27.60;27.30;99795.06;4482830;32;34956;-83
2022/05/09 12:32:02;;;;;;;;;;;;;;;27.24;27.21;99789.66;4482221;32;34067;-81
2022/05/09 12:34:33;;;;;;;;;;;;;;;27.82;27.40;99794.94;4458572;32;34345;-81
2022/05/09 12:37:01;;;;;;;;;;;;;;;28.35;27.22;99799.41;4453489;32;34827;-82
2022/05/09 12:39:34;;;;;;;;;;;;;;;28.75;27.38;99802.75;4453062;32;34399;-82
2022/05/09 12:42:02;;;;;;;;;;;;;;;28.89;27.34;99812.69;4453290;32;34332;-83
2022/05/09 12:44:38;;;;;;;;;;;;;;;27.63;27.61;99816.22;4453173;32;33948;-81
2022/05/09 12:47:06;;;;;;;;;;;;;;;26.40;30.19;99825.19;4470441;32;34500;-83
2022/05/09 12:49:40;;;;;;;;;;;;;;;25.81;31.13;99818.72;4468778;32;34550;-83
2022/05/09 12:52:08;;;;;;;;;;;;;;;26.89;30.50;99820.47;4468565;32;33685;-84
2022/05/09 12:54:39;;;;;;;;;;;;;;;27.58;30.21;99820.06;4467942;32;34301;-82
2022/05/09 12:57:07;;;;;;;;;;;;;;;28.24;29.96;99816.91;4475179;32;34328;-81
2022/05/09 12:59:47;;;;;;;;;;;;;;;27.81;30.31;99827.00;4475367;32;35345;-82
2022/05/09 13:02:20;;;;;;;;;;;;;;;28.20;30.53;99839.31;4468702;32;33716;-83
2022/05/09 13:05:08;;;;;;;;;;;;;;;27.38;32.62;99839.59;4474072;32;35015;-82
2022/05/09 13:07:52;;;;;;;;;;;;;;;27.52;33.63;99836.31;4458782;32;34072;-82
2022/05/09 13:10:20;;;;;;;;;;;;;;;27.02;35.15;99853.59;4472209;32;34572;-82
2022/05/09 13:12:48;;;;;;;;;;;;;;;26.75;36.34;99858.31;4466982;32;34045;-83
2022/05/09 13:15:16;;;;;;;;;;;;;;;27.30;36.18;99860.38;4477949;32;33645;-82
2022/05/09 13:17:45;;;;;;;;;;;;;;;25.62;41.28;99861.03;4453006;32;34230;-82
2022/05/09 13:20:14;;;;;;;;;;;;;;;25.77;42.89;99864.03;4466853;32;34708;-81
2022/05/09 13:22:54;;;;;;;;;;;;;;;26.28;42.41;99855.81;4452922;32;33092;-82